Latest Weather Observations for Mildura

IDV60801

Issued at 4:03 pm EDT Tuesday 10 December 2019 (issued every 10 minutes, with the page automatically refreshed every 10 minutes)

About weather observations | Map of weather stations | Latest weather observations for VIC | Other Formats
Station Details ID: 076031 Name: MILDURA AIRPORT Lat: -34.24 Lon: 142.09 Height: 50.0 m
Data from the previous 72 hours. | See also: Recent months at Mildura
Date/Time
EDT
Temp
°C
App
Temp
°C
Dew
Point
°C
Rel
Hum
%
Delta-T
°C
Wind Press
QNH
hPa
Press
MSL
hPa
Rain since
9am
mm
Dir  Spd
km/h
Gust
km/h
Spd
kts
Gust
kts
10/04:00pm 31.9 28.0 1.1 14 15.2 SSE 11 22 6 12 1014.9 1014.7 0.0
10/03:30pm 30.6 25.2 1.0 15 14.5 SSW 19 28 10 15 1015.3 1015.1 0.0
10/03:00pm 30.8 26.1 1.2 15 14.5 SW 15 30 8 16 1015.6 1015.4 0.0
10/02:30pm 29.4 24.8 1.8 17 13.6 SW 15 32 8 17 1015.9 1015.7 0.0
10/02:00pm 29.5 24.9 3.5 19 13.2 S 17 28 9 15 1016.1 1015.9 0.0
10/01:30pm 28.1 23.5 3.7 21 12.3 SW 17 26 9 14 1016.5 1016.4 0.0
10/01:00pm 27.6 23.4 5.8 25 11.3 SSW 17 26 9 14 1016.9 1016.8 0.0
10/12:30pm 26.2 21.7 6.3 28 10.4 SSW 19 28 10 15 1017.3 1017.2 0.0
10/12:00pm 24.4 20.6 7.5 34 8.9 S 17 26 9 14 1017.7 1017.5 0.0
10/11:30am 23.3 19.9 9.0 40 7.7 SSW 17 26 9 14 1017.9 1017.7 0.0
10/11:00am 22.9 19.6 9.7 43 7.2 SSW 17 28 9 15 1018.2 1018.0 0.0
10/10:30am 21.3 18.6 10.2 49 6.0 S 15 22 8 12 1018.4 1018.2 0.0
10/10:00am 19.9 16.7 10.0 53 5.3 SSW 17 26 9 14 1018.6 1018.4 0.0
10/09:30am 19.1 16.1 10.6 58 4.6 SSW 17 28 9 15 1018.5 1018.3 0.0
10/09:00am 18.0 14.4 10.6 62 4.0 SSW 20 32 11 17 1018.5 1018.3 0.0
10/08:30am 17.3 13.8 10.9 66 3.4 SSW 20 32 11 17 1018.0 1017.8 0.0
10/08:00am 16.4 12.6 11.1 71 2.8 SSW 22 30 12 16 1018.0 1017.8 0.0
10/07:30am 16.2 12.8 11.2 72 2.7 SSW 20 32 11 17 1017.9 1017.7 0.0
10/07:00am 16.0 13.2 11.2 73 2.6 SSW 17 28 9 15 1018.0 1017.8 0.0
10/06:30am 16.4 13.6 11.3 72 2.8 SSW 17 26 9 14 1017.4 1017.3 0.0
10/06:00am 16.9 14.8 11.2 69 3.1 SW 13 20 7 11 1017.0 1016.9 0.0
10/05:30am 17.1 14.3 11.2 68 3.2 SW 17 28 9 15 1016.6 1016.5 0.0
10/05:00am 17.4 14.5 11.0 66 3.5 SW 17 28 9 15 1016.0 1015.8 0.0
10/04:30am 18.1 15.6 11.0 63 3.8 SW 15 22 8 12 1016.2 1016.0 0.0
10/04:00am 18.8 15.8 10.6 59 4.4 SSW 17 26 9 14 1015.7 1015.5 0.0
10/03:30am 19.6 16.5 10.3 55 5.0 SW 17 24 9 13 1015.8 1015.6 0.0
10/03:00am 20.6 17.7 9.5 49 5.9 SW 15 24 8 13 1015.7 1015.5 0.0
10/02:30am 21.6 18.5 8.8 44 6.8 SW 15 22 8 12 1015.6 1015.4 0.0
10/02:00am 22.0 19.1 8.2 41 7.3 SW 13 20 7 11 1015.5 1015.3 0.0
10/01:30am 22.1 20.2 7.5 39 7.6 S 7 22 4 12 1015.7 1015.5 0.0
10/01:00am 22.5 20.6 7.5 38 7.8 SSE 7 11 4 6 1014.8 1014.6 0.0
10/12:30am 23.1 20.4 7.2 36 8.3 S 11 19 6 10 1015.4 1015.2 0.0
10/12:00am 23.5 20.2 8.0 37 8.2 S 15 22 8 12 1015.2 1015.0 0.0
 
Date/Time
EDT
Temp
°C
App
Temp
°C
Dew
Point
°C
Rel
Hum
%
Delta-T
°C
Wind Press
QNH
hPa
Press
MSL
hPa
Rain since
9am
mm
Dir  Spd
km/h
Gust
km/h
Spd
kts
Gust
kts
09/11:30pm 23.8 21.4 8.6 38 8.1 S 11 17 6 9 1015.2 1015.0 0.0
09/11:00pm 24.0 21.1 9.6 40 7.9 S 15 22 8 12 1014.9 1014.7 0.0
09/10:30pm 24.6 20.5 10.1 40 8.0 SW 22 33 12 18 1015.7 1015.5 0.0
09/10:00pm 26.1 21.7 10.3 37 8.8 SSW 24 37 13 20 1014.6 1014.4 0.0
09/09:30pm 27.4 22.7 10.6 35 9.5 SW 26 41 14 22 1014.3 1014.1 0.0
09/09:03pm 29.1 24.2 11.2 33 10.3 SW 28 46 15 25 1014.1 1013.9 0.0
09/09:00pm 29.3 23.9 10.9 32 10.5 SW 30 46 16 25 1014.3 1014.1 0.0
09/08:30pm 31.2 26.7 10.0 27 12.1 SW 24 46 13 25 1013.3 1013.1 0.0
09/08:06pm 31.8 25.8 8.7 24 12.9 SW 30 48 16 26 1012.8 1012.6 0.0
09/08:00pm 32.0 26.1 8.9 24 13.0 SW 30 44 16 24 1012.6 1012.4 0.0
09/07:36pm 33.7 27.5 6.1 18 15.0 SW 28 46 15 25 1012.2 1012.0 0.0
09/07:30pm 33.9 27.9 5.4 17 15.3 SSW 26 43 14 23 1012.0 1011.8 0.0
09/07:00pm 34.7 28.1 4.3 15 16.1 SW 28 46 15 25 1011.4 1011.2 0.0
09/06:42pm 35.0 28.3 3.5 14 16.5 SSW 28 46 15 25 1011.1 1010.9 0.0
09/06:30pm 35.8 29.0 3.1 13 17.1 SW 28 44 15 24 1010.9 1010.7 0.0
09/06:18pm 36.4 28.9 1.2 11 17.9 SW 30 48 16 26 1010.7 1010.5 0.0
09/06:05pm 37.9 30.3 -2.0 8 19.5 SW 28 46 15 25 1010.6 1010.4 0.0
09/06:00pm 38.2 30.3 -1.8 8 19.7 SW 30 46 16 25 1010.4 1010.2 0.0
09/05:59pm 38.4 30.9 -1.6 8 19.7 SW 28 46 15 25 1010.4 1010.2 0.0
09/05:30pm 40.4 33.8 -6.5 5 21.7 WSW 20 32 11 17 1010.1 1009.9 0.0
09/05:00pm 40.7 34.2 -6.3 5 21.9 WSW 20 39 11 21 1010.0 1009.8 0.0
09/04:30pm 41.5 35.3 -8.6 4 22.7 W 17 28 9 15 1010.0 1009.8 0.0
09/04:00pm 41.1 34.1 -12.5 3 22.9 W 20 35 11 19 1010.4 1010.2 0.0
09/03:30pm 42.0 36.2 -8.2 4 22.9 NNW 15 22 8 12 1010.5 1010.3 0.0
09/03:00pm 41.3 35.9 -8.7 4 22.6 W 13 24 7 13 1011.0 1010.8 0.0
09/02:30pm 40.9 35.1 -9.0 4 22.4 NNW 15 22 8 12 1011.5 1011.3 0.0
09/02:00pm 40.2 33.6 -9.5 4 22.0 NW 19 32 10 17 1012.0 1011.8 0.0
09/01:30pm 40.1 33.3 -9.5 4 21.9 NNW 20 32 11 17 1012.5 1012.3 0.0
09/01:00pm 39.4 32.5 -10.0 4 21.6 NW 20 30 11 16 1013.0 1012.8 0.0
09/12:30pm 38.6 31.9 -7.7 5 20.8 NNW 20 33 11 18 1013.3 1013.1 0.0
09/12:00pm 38.1 31.2 -10.9 4 20.9 NNW 20 33 11 18 1013.5 1013.3 0.0
09/11:30am 37.0 30.4 -6.5 6 19.7 NNW 20 33 11 18 1013.7 1013.5 0.0
09/11:00am 35.6 28.2 -7.5 6 19.0 N 24 39 13 21 1013.8 1013.6 0.0
09/10:30am 34.8 27.5 -6.0 7 18.3 N 24 35 13 19 1013.9 1013.7 0.0
09/10:00am 34.2 26.1 -6.5 7 18.0 NNE 28 37 15 20 1014.0 1013.8 0.0
09/09:30am 33.0 25.8 -5.6 8 17.2 NNE 24 37 13 20 1014.0 1013.8 0.0
09/09:00am 30.4 24.6 -4.6 10 15.5 NNE 17 22 9 12 1014.1 1013.9 0.0
09/08:30am 28.1 21.1 -3.9 12 14.1 NNE 24 28 13 15 1013.8 1013.6 0.0
09/08:00am 26.5 18.9 -5.2 12 13.4 NNE 26 32 14 17 1013.7 1013.5 0.0
09/07:30am 24.2 19.3 -0.2 20 11.1 NNE 15 19 8 10 1013.6 1013.4 0.0
09/07:00am 23.1 17.4 -4.1 16 11.4 NNE 17 19 9 10 1013.2 1013.0 0.0
09/06:30am 21.3 15.7 -3.2 19 10.3 NNE 17 19 9 10 1012.9 1012.7 0.0
09/06:00am 20.9 15.8 -2.2 21 9.9 NNE 15 17 8 9 1012.5 1012.3 0.0
09/05:30am 19.9 14.7 -3.0 21 9.5 NNE 15 15 8 8 1012.2 1012.0 0.0
09/05:00am 20.7 16.1 -3.7 19 10.1 NE 11 13 6 7 1012.2 1012.0 0.0
09/04:30am 20.7 15.7 -4.4 18 10.2 NE 13 15 7 8 1012.0 1011.8 0.0
09/04:00am 21.7 16.3 -4.4 17 10.8 NE 15 17 8 9 1012.1 1011.9 0.0
09/03:30am 21.2 16.2 -4.0 18 10.4 NE 13 13 7 7 1012.3 1012.1 0.0
09/03:00am 21.2 16.8 -2.6 20 10.1 NE 11 13 6 7 1012.7 1012.5 0.0
09/02:30am 22.1 16.7 -4.9 16 11.1 NNE 15 17 8 9 1012.9 1012.7 0.0
09/02:00am 23.7 18.4 -3.6 16 11.6 NNE 15 17 8 9 1012.9 1012.7 0.0
09/01:30am 23.8 19.4 -2.7 17 11.5 NNE 11 13 6 7 1013.2 1013.0 0.0
09/01:00am 23.1 19.3 -0.4 21 10.6 NE 9 13 5 7 1013.5 1013.3 0.0
09/12:30am 23.6 19.7 1.3 23 10.4 E 11 15 6 8 1013.9 1013.7 0.0
09/12:00am 24.0 20.9 1.6 23 10.6 ENE 7 9 4 5 1014.1 1013.9 0.0
 
Date/Time
EDT
Temp
°C
App
Temp
°C
Dew
Point
°C
Rel
Hum
%
Delta-T
°C
Wind Press
QNH
hPa
Press
MSL
hPa
Rain since
9am
mm
Dir  Spd
km/h
Gust
km/h
Spd
kts
Gust
kts
08/11:30pm 22.9 20.1 2.9 27 9.6 E 7 7 4 4 1014.1 1013.9 0.0
08/11:00pm 23.8 20.5 2.6 25 10.2 E 9 11 5 6 1014.2 1014.0 0.0
08/10:30pm 25.0 21.9 1.2 21 11.2 SE 7 9 4 5 1014.2 1014.0 0.0
08/10:00pm 25.6 22.6 2.3 22 11.3 ESE 7 9 4 5 1014.2 1014.0 0.0
08/09:30pm 26.7 24.3 -3.0 14 13.1 CALM 0 0 0 0 1013.9 1013.7 0.0
08/09:00pm 28.3 25.8 -3.8 12 14.2 CALM 0 0 0 0 1013.7 1013.5 0.0
08/08:30pm 30.6 28.2 -3.2 11 15.4 CALM 0 0 0 0 1013.6 1013.4 0.0
08/08:00pm 34.3 30.4 -6.4 7 18.0 WNW 6 7 3 4 1013.4 1013.2 0.0
08/07:30pm 35.5 32.5 -5.5 7 18.6 W 2 9 1 5 1013.1 1012.9 0.0
08/07:00pm 36.0 31.1 -7.2 6 19.2 E 11 17 6 9 1012.8 1012.6 0.0
08/06:30pm 36.0 32.0 -7.2 6 19.2 ENE 6 9 3 5 1012.6 1012.4 0.0
08/06:00pm 36.1 32.7 -9.4 5 19.5 E 2 7 1 4 1012.7 1012.5 0.0
08/05:30pm 35.9 31.7 -7.2 6 19.1 WNW 7 15 4 8 1012.9 1012.7 0.0
08/05:00pm 35.1 30.5 -7.8 6 18.7 NNE 9 19 5 10 1013.1 1012.9 0.0
08/04:30pm 35.2 29.3 -10.1 5 19.1 NE 15 22 8 12 1013.3 1013.1 0.0
08/04:00pm 35.2 30.2 -7.7 6 18.8 NE 11 22 6 12 1013.6 1013.4 0.0
08/03:30pm 34.6 29.2 -8.2 6 18.5 ENE 13 20 7 11 1013.8 1013.6 0.0
08/03:00pm 34.2 29.7 -6.5 7 18.0 NE 9 19 5 10 1014.2 1014.0 0.0
08/02:30pm 34.9 30.5 -6.0 7 18.3 NNE 9 19 5 10 1014.6 1014.4 0.0
08/02:00pm 33.1 28.9 -7.3 7 17.5 NNE 7 20 4 11 1015.0 1014.8 0.0
08/01:30pm 33.1 27.4 -7.3 7 17.5 NNE 15 24 8 13 1015.3 1015.1 0.0
08/01:00pm 31.8 26.6 -6.5 8 16.6 NE 13 24 7 13 1015.5 1015.3 0.0
08/12:30pm 31.3 26.2 -5.3 9 16.1 ENE 13 17 7 9 1015.9 1015.7 0.0
08/12:00pm 30.7 25.2 -5.8 9 15.9 NE 15 26 8 14 1016.3 1016.1 0.0
08/11:30am 30.0 25.3 -4.9 10 15.3 ENE 11 19 6 10 1016.4 1016.3 0.0
08/11:00am 29.1 24.2 -3.2 12 14.5 NE 13 20 7 11 1016.5 1016.4 0.0
08/10:30am 28.7 23.7 -1.4 14 13.9 NE 15 24 8 13 1016.6 1016.5 0.0
08/10:00am 26.6 22.7 1.1 19 12.1 ENE 11 17 6 9 1016.8 1016.7 0.0
08/09:30am 24.5 20.7 2.0 23 10.7 ENE 11 17 6 9 1016.7 1016.6 0.0
08/09:00am 22.6 19.2 2.1 26 9.6 ENE 9 15 5 8 1017.0 1016.9 0.0
08/08:30am 20.6 16.8 2.0 29 8.6 ENE 11 15 6 8 1016.9 1016.8 0.0
08/08:00am 18.3 14.3 2.6 35 7.2 E 13 17 7 9 1016.9 1016.8 0.0
08/07:30am 16.6 13.1 1.5 36 6.7 ENE 9 13 5 7 1016.6 1016.5 0.0
08/07:00am 15.2 12.0 1.0 38 6.1 ESE 7 11 4 6 1016.4 1016.3 0.0
08/06:30am 14.3 10.8 1.2 41 5.7 ESE 9 9 5 5 1016.1 1015.9 0.0
08/06:00am 13.6 10.0 0.6 41 5.5 E 9 11 5 6 1015.8 1015.6 0.0
08/05:30am 13.3 9.6 -0.3 39 5.6 SE 9 11 5 6 1015.7 1015.5 0.0
08/05:00am 14.7 12.4 0.2 37 6.1 E 2 7 1 4 1015.4 1015.2 0.0
08/04:30am 13.6 10.6 0.6 41 5.5 SSE 6 7 3 4 1014.9 1014.7 0.0
08/04:00am 14.2 11.0 0.5 39 5.8 SSE 7 9 4 5 1014.9 1014.7 0.0
08/03:30am 14.1 10.8 2.4 45 5.2 SSE 9 13 5 7 1015.0 1014.8 0.0
08/03:00am 14.3 13.2 4.9 53 4.4 CALM 0 0 0 0 1015.1 1014.9 0.0
08/02:30am 15.1 13.1 6.4 56 4.2 NNE 6 6 3 3 1015.4 1015.2 0.0
08/02:00am 15.4 12.7 2.9 43 5.6 NNE 6 7 3 4 1015.6 1015.4 0.0
08/01:30am 16.8 14.9 3.1 40 6.3 NNE 2 6 1 3 1015.7 1015.5 0.0
08/01:00am 17.0 14.2 2.2 37 6.7 NNE 6 7 3 4 1016.0 1015.8 0.0
08/12:30am 17.1 15.3 1.5 35 6.9 CALM 0 0 0 0 1016.2 1016.0 0.0
08/12:00am 17.8 15.4 -0.5 29 7.9 E 2 6 1 3 1016.3 1016.1 0.0
 
Date/Time
EDT
Temp
°C
App
Temp
°C
Dew
Point
°C
Rel
Hum
%
Delta-T
°C
Wind Press
QNH
hPa
Press
MSL
hPa
Rain since
9am
mm
Dir  Spd
km/h
Gust
km/h
Spd
kts
Gust
kts
07/11:30pm 19.0 16.0 0.6 29 8.2 E 6 7 3 4 1016.2 1016.0 0.0
07/11:00pm 19.7 16.6 0.2 27 8.6 SE 6 7 3 4 1016.4 1016.3 0.0
07/10:30pm 20.0 16.8 -0.6 25 9.0 SE 6 7 3 4 1016.4 1016.3 0.0
07/10:00pm 20.7 18.6 2.0 29 8.6 ESE 2 7 1 4 1016.2 1016.0 0.0
07/09:30pm 21.7 19.7 -0.3 23 9.8 CALM 0 0 0 0 1016.0 1015.8 0.0
07/09:00pm 23.3 21.3 -0.2 21 10.6 CALM 0 6 0 3 1015.6 1015.4 0.0
07/08:30pm 25.8 22.4 -1.9 16 12.4 E 6 7 3 4 1015.3 1015.1 0.0
07/08:00pm 27.5 23.4 -3.3 13 13.6 ESE 9 13 5 7 1015.1 1014.9 0.0
07/07:30pm 28.6 24.1 -3.6 12 14.3 SE 11 13 6 7 1014.9 1014.7 0.0
07/07:00pm 28.8 24.9 -4.6 11 14.6 ESE 7 15 4 8 1014.5 1014.3 0.0
07/06:30pm 28.7 23.9 -5.9 10 14.8 SE 11 17 6 9 1014.2 1014.0 0.0
07/06:00pm 28.8 23.4 -4.6 11 14.6 ESE 15 20 8 11 1014.1 1013.9 0.0
07/05:30pm 28.9 24.8 -3.3 12 14.4 SE 9 19 5 10 1014.3 1014.1 0.0
07/05:00pm 28.6 24.3 -4.7 11 14.5 SSE 9 13 5 7 1014.6 1014.4 0.0
07/04:30pm 28.3 23.6 -4.9 11 14.4 SSE 11 17 6 9 1014.7 1014.5 0.0

Other formats

Comma delimited format used in spreadsheet applications
http://www.bom.gov.au/fwo/IDV60801/IDV60801.94693.axf

JavaScript Object Notation format (JSON) in row-major order
http://www.bom.gov.au/fwo/IDV60801/IDV60801.94693.json

Data quality

Most of these data are generated automatically and are frequently updated. Quality checks on data are not normally performed. It is possible for incorrect values to appear. Refer to information at About Latest Weather Observations and please check the disclaimer before using these data.